createdAt,value
2019-03-17T19:05:55.226Z,1.70
2019-03-17T19:06:55.155Z,1.30
2019-03-17T19:08:48.020Z,1.30
2019-03-17T19:09:47.901Z,1.20
2019-03-17T19:11:40.668Z,1.20
2019-03-17T19:12:45.521Z,1.20
2019-03-17T19:14:33.410Z,1.40
2019-03-17T19:15:33.337Z,1.20
2019-03-17T19:17:26.236Z,1.20
2019-03-17T19:18:26.111Z,1.20
2019-03-17T19:20:18.894Z,1.10
2019-03-17T19:21:18.804Z,1.10
2019-03-17T19:23:12.591Z,1.10
2019-03-17T19:24:12.542Z,1.00
2019-03-17T19:26:05.904Z,1.10
2019-03-17T19:27:05.762Z,1.00
2019-03-17T19:28:58.522Z,1.10
2019-03-17T19:29:58.473Z,1.10
2019-03-17T19:31:51.494Z,1.30
2019-03-17T19:32:51.461Z,1.10
2019-03-17T19:34:44.317Z,1.30
2019-03-17T19:35:44.167Z,1.10
2019-03-17T19:37:36.960Z,1.20
2019-03-17T19:38:36.913Z,1.40
2019-03-17T19:40:29.725Z,1.10
2019-03-17T19:41:29.654Z,1.00
2019-03-17T19:43:22.465Z,1.10
2019-03-17T19:44:22.397Z,1.40
2019-03-17T19:46:15.221Z,1.30
2019-03-17T19:47:15.152Z,1.20
2019-03-17T19:49:07.956Z,1.50
2019-03-17T19:50:07.897Z,1.30
2019-03-17T19:52:01.190Z,1.00
2019-03-17T19:53:00.644Z,1.20
2019-03-17T19:54:53.659Z,1.40
2019-03-17T19:55:53.590Z,1.20
2019-03-17T19:57:46.390Z,1.30
2019-03-17T19:58:46.341Z,1.20
2019-03-17T20:00:39.181Z,1.20
2019-03-17T20:01:39.089Z,1.10
2019-03-17T20:03:31.894Z,1.00
2019-03-17T20:04:35.190Z,1.30
2019-03-17T20:06:24.667Z,1.10
2019-03-17T20:07:24.587Z,1.00
2019-03-17T20:09:17.488Z,1.00
2019-03-17T20:10:17.337Z,1.70
2019-03-17T20:12:12.888Z,1.10
2019-03-17T20:13:11.925Z,0.80
2019-03-17T20:15:03.335Z,0.90
2019-03-17T20:16:03.270Z,0.90
2019-03-17T20:17:56.505Z,1.00
2019-03-17T20:18:56.461Z,1.20
2019-03-17T20:20:49.281Z,0.90
2019-03-17T20:21:49.209Z,1.00
2019-03-17T20:23:42.006Z,1.10
2019-03-17T20:24:42.001Z,0.90
2019-03-17T20:26:34.770Z,1.00
2019-03-17T20:27:34.765Z,1.10
2019-03-17T20:29:28.939Z,1.00
2019-03-17T20:30:27.439Z,0.90
2019-03-17T20:32:21.263Z,0.70
2019-03-17T20:33:21.168Z,1.00
2019-03-17T20:35:14.028Z,1.20
2019-03-17T20:36:13.917Z,1.00
2019-03-17T20:38:06.712Z,0.90
2019-03-17T20:39:06.679Z,1.10
2019-03-17T20:40:59.963Z,0.90
2019-03-17T20:41:59.888Z,1.00
2019-03-17T20:43:52.656Z,0.90
2019-03-17T20:44:52.598Z,1.00
2019-03-17T20:46:45.412Z,1.20
2019-03-17T20:47:45.346Z,1.00
2019-03-17T20:49:39.863Z,0.90
2019-03-17T20:50:39.927Z,1.00
2019-03-17T20:52:32.758Z,1.00
2019-03-17T20:53:32.688Z,0.80
2019-03-17T20:55:25.589Z,0.90
2019-03-17T20:56:25.422Z,1.00
2019-03-17T20:58:19.159Z,1.40
2019-03-17T20:59:18.715Z,0.90
2019-03-17T21:00:18.670Z,1.10
2019-03-17T21:01:18.620Z,0.90
2019-03-17T21:02:18.583Z,1.00
2019-03-17T21:03:18.535Z,1.00
2019-03-17T21:04:18.494Z,0.90
2019-03-17T21:05:18.446Z,1.00
2019-03-17T21:06:18.403Z,1.00
2019-03-17T21:07:18.379Z,0.90
2019-03-17T21:08:18.313Z,1.10
2019-03-17T21:09:18.268Z,1.40
2019-03-17T21:10:18.226Z,1.10
2019-03-17T21:11:18.210Z,1.20
2019-03-17T21:12:18.132Z,1.00
2019-03-17T21:13:18.096Z,0.90
2019-03-17T21:14:18.047Z,1.20
2019-03-17T21:15:17.995Z,0.90
2019-03-17T21:16:17.958Z,0.90
2019-03-17T21:17:17.917Z,1.00
2019-03-17T21:18:17.870Z,1.00
2019-03-17T21:19:17.828Z,1.00
2019-03-17T21:20:17.783Z,1.00
2019-03-17T21:21:17.737Z,1.00
2019-03-17T21:22:17.691Z,0.90
2019-03-17T21:23:17.644Z,0.90
2019-03-17T21:24:17.604Z,1.00
2019-03-17T21:25:17.561Z,0.90
2019-03-17T21:26:17.516Z,0.80
2019-03-17T21:27:17.466Z,1.10
2019-03-17T21:28:17.427Z,0.80
2019-03-17T21:29:17.379Z,0.90
2019-03-17T21:30:17.396Z,1.00
2019-03-17T21:31:17.290Z,0.90
2019-03-17T21:32:17.389Z,0.80
2019-03-17T21:33:17.242Z,0.90
2019-03-17T21:34:17.165Z,0.90
2019-03-17T21:35:17.113Z,0.80
2019-03-17T21:36:17.070Z,0.80
2019-03-17T21:37:17.030Z,0.90
2019-03-17T21:38:16.987Z,0.90
2019-03-17T21:39:17.931Z,0.90
2019-03-17T21:40:16.896Z,0.90
2019-03-17T21:41:16.848Z,0.80
2019-03-17T21:42:16.806Z,0.80
2019-03-17T21:43:16.759Z,0.70
2019-03-17T21:44:16.725Z,0.80
2019-03-17T21:45:16.670Z,1.00
2019-03-17T21:46:16.625Z,0.90
2019-03-17T21:47:16.581Z,0.80
2019-03-17T21:48:16.537Z,0.70
2019-03-17T21:49:16.487Z,0.90
2019-03-17T21:50:16.447Z,0.90
2019-03-17T21:51:16.423Z,0.90
2019-03-17T21:52:16.359Z,0.70
2019-03-17T21:53:16.314Z,0.80
2019-03-17T21:54:16.274Z,0.70
2019-03-17T21:55:16.247Z,0.90
2019-03-17T21:56:16.265Z,1.00
2019-03-17T21:57:16.136Z,0.80
2019-03-17T21:58:16.092Z,0.80
2019-03-17T21:59:16.048Z,0.80
2019-03-17T22:00:16.007Z,0.80
2019-03-17T22:01:15.959Z,0.80
2019-03-17T22:02:15.918Z,0.90
2019-03-17T22:03:15.923Z,0.90
2019-03-17T22:04:15.827Z,1.10
2019-03-17T22:05:15.780Z,1.10
2019-03-17T22:06:15.738Z,0.80
2019-03-17T22:07:15.688Z,0.80
2019-03-17T22:08:15.648Z,0.70
2019-03-17T22:09:17.311Z,0.80
2019-03-17T22:10:15.562Z,0.60
2019-03-17T22:11:15.516Z,0.60
2019-03-17T22:12:15.473Z,0.90
2019-03-17T22:13:15.423Z,0.80
2019-03-17T22:14:15.387Z,1.00
2019-03-17T22:15:15.337Z,0.70
2019-03-17T22:16:15.291Z,0.90
2019-03-17T22:17:15.305Z,0.70
2019-03-17T22:18:15.205Z,0.60
2019-03-17T22:19:15.157Z,0.60
2019-03-17T22:20:15.116Z,0.80
2019-03-17T22:21:15.072Z,0.80
2019-03-17T22:22:15.028Z,0.70
2019-03-17T22:23:15.002Z,0.80
2019-03-17T22:24:14.939Z,0.90
2019-03-17T22:25:14.916Z,0.70
2019-03-17T22:26:14.848Z,0.60
2019-03-17T22:27:14.805Z,0.90
2019-03-17T22:28:14.759Z,0.80
2019-03-17T22:29:14.717Z,1.00
2019-03-17T22:30:14.681Z,0.90
2019-03-17T22:31:14.628Z,0.80
2019-03-17T22:32:14.704Z,1.00
2019-03-17T22:33:14.547Z,0.80
2019-03-17T22:34:14.494Z,0.50
2019-03-17T22:35:14.449Z,0.80
2019-03-17T22:36:14.411Z,0.90
2019-03-17T22:37:14.360Z,0.90
2019-03-17T22:38:14.316Z,0.70
2019-03-17T22:39:14.270Z,0.70
2019-03-17T22:40:14.226Z,0.70
2019-03-17T22:41:14.183Z,0.70
2019-03-17T22:42:14.138Z,0.80
2019-03-17T22:43:14.093Z,0.80
2019-03-17T22:44:23.810Z,1.30
2019-03-17T22:45:14.006Z,0.80
2019-03-17T22:46:13.963Z,0.70
2019-03-17T22:47:13.915Z,0.90
2019-03-17T22:48:13.871Z,1.00
2019-03-17T22:49:13.830Z,0.60
2019-03-17T22:50:13.782Z,0.60
2019-03-17T22:51:13.739Z,1.00
2019-03-17T22:52:13.693Z,0.70
2019-03-17T22:53:13.649Z,0.90
2019-03-17T22:54:13.604Z,0.70
2019-03-17T22:55:13.560Z,0.70
2019-03-17T22:56:13.516Z,0.80
2019-03-17T22:57:13.470Z,0.90
2019-03-17T22:58:13.427Z,0.90
2019-03-17T22:59:13.381Z,0.70
2019-03-17T23:00:13.337Z,0.80
2019-03-17T23:01:13.294Z,0.60
2019-03-17T23:02:13.248Z,0.80
2019-03-17T23:03:13.207Z,0.60
2019-03-17T23:04:13.161Z,0.70
2019-03-17T23:05:13.116Z,0.80
2019-03-17T23:06:13.075Z,1.00
2019-03-17T23:07:13.031Z,0.80
2019-03-17T23:08:12.979Z,0.80
2019-03-17T23:09:12.938Z,0.80
2019-03-17T23:10:12.905Z,0.70
2019-03-17T23:11:12.849Z,1.00
2019-03-17T23:12:12.806Z,0.80
2019-03-17T23:13:12.760Z,0.80
2019-03-17T23:14:12.714Z,0.80
2019-03-17T23:15:12.671Z,0.70
2019-03-17T23:16:12.626Z,0.70
2019-03-17T23:17:12.584Z,0.70
2019-03-17T23:18:12.536Z,0.60
2019-03-17T23:19:12.496Z,0.70
2019-03-17T23:20:12.450Z,0.70
2019-03-17T23:21:12.416Z,0.60
2019-03-17T23:22:12.360Z,0.70
2019-03-17T23:23:12.323Z,0.80
2019-03-17T23:24:12.271Z,0.70
2019-03-17T23:25:12.231Z,0.60
2019-03-17T23:26:12.182Z,0.90
2019-03-17T23:27:12.138Z,0.60
2019-03-17T23:28:12.094Z,0.60
2019-03-17T23:29:12.049Z,0.80
2019-03-17T23:30:12.007Z,0.70
2019-03-17T23:31:11.961Z,0.70
2019-03-17T23:32:11.918Z,0.70
2019-03-17T23:33:11.874Z,0.60
2019-03-17T23:34:11.826Z,0.80
2019-03-17T23:35:11.785Z,0.80
2019-03-17T23:36:11.737Z,0.60
2019-03-17T23:37:11.699Z,0.60
2019-03-17T23:38:11.648Z,0.80
2019-03-17T23:39:11.607Z,0.60
2019-03-17T23:40:11.566Z,0.70
2019-03-17T23:41:11.515Z,0.70
2019-03-17T23:42:11.482Z,0.70
2019-03-17T23:43:11.427Z,0.90
2019-03-17T23:44:11.383Z,0.60
2019-03-17T23:45:11.339Z,0.50
2019-03-17T23:46:11.308Z,0.80
2019-03-17T23:47:11.248Z,0.80
2019-03-17T23:48:11.203Z,0.80
2019-03-17T23:49:11.159Z,0.70
2019-03-17T23:50:11.120Z,0.90
2019-03-17T23:51:11.071Z,0.80
2019-03-17T23:52:11.029Z,0.80
2019-03-17T23:53:10.984Z,0.60
2019-03-17T23:54:10.935Z,1.00
2019-03-17T23:55:10.896Z,0.70
2019-03-17T23:56:10.848Z,0.60
2019-03-17T23:57:10.804Z,0.70
2019-03-17T23:58:10.761Z,0.70
2019-03-17T23:59:10.715Z,0.60
